Time;durP1;ratioP1;P1;durP2;ratioP2;P2;SDS_P1;SDS_P2;PMS_P1;PMS_P2;Temp;Humidity;BMP_temperature;BMP_pressure;BME280_temperature;BME280_humidity;BME280_pressure;Samples;Min_cycle;Max_cycle;Signal;HPM_P1;HPM_P2
2022/11/04 00:01:40;;;;;;;0.00;0.00;;;;;;;;;;5076432;28;20533;-81
2022/11/04 00:04:07;;;;;;;0.00;0.00;;;;;;;;;;5075441;28;20040;-81
2022/11/04 00:06:33;;;;;;;0.00;0.00;;;;;;;;;;5093894;28;20032;-81
2022/11/04 00:08:59;;;;;;;0.00;0.00;;;;;;;;;;5075544;28;20043;-81
2022/11/04 00:14:11;;;;;;;0.00;0.00;;;;;;;;;;5093548;28;20477;-81
2022/11/04 00:19:22;;;;;;;0.00;0.00;;;;;;;;;;5093670;28;20415;-81
2022/11/04 00:30:00;;;;;;;0.00;0.00;;;;;;;;;;5093173;28;20052;-82
2022/11/04 00:35:12;;;;;;;0.00;0.00;;;;;;;;;;5093566;28;20083;-81
2022/11/04 00:37:39;;;;;;;0.00;0.00;;;;;;;;;;5075070;28;20048;-81
2022/11/04 00:40:05;;;;;;;0.00;0.00;;;;;;;;;;5074864;28;20047;-81
2022/11/04 00:42:31;;;;;;;0.00;0.00;;;;;;;;;;5075234;28;20129;-81
2022/11/04 00:44:57;;;;;;;0.00;0.00;;;;;;;;;;5075340;28;20048;-81
2022/11/04 00:47:23;;;;;;;0.00;0.00;;;;;;;;;;5093318;28;20449;-81
2022/11/04 00:49:49;;;;;;;0.00;0.00;;;;;;;;;;5075066;28;20075;-81
2022/11/04 00:52:15;;;;;;;0.45;0.45;;;;;;;;;;5093369;28;20039;-81
2022/11/04 00:54:41;;;;;;;0.00;0.00;;;;;;;;;;5074799;28;20040;-81
2022/11/04 00:57:11;;;;;;;0.40;0.03;;;;;;;;;;5075107;28;20097;-81
2022/11/04 00:59:38;;;;;;;0.00;0.00;;;;;;;;;;5074664;28;20043;-81
2022/11/04 01:02:05;;;;;;;0.00;0.00;;;;;;;;;;5092225;28;20044;-81
2022/11/04 01:04:31;;;;;;;0.00;0.00;;;;;;;;;;5074818;28;20089;-81
2022/11/04 01:06:57;;;;;;;0.00;0.00;;;;;;;;;;5093191;28;20032;-81
2022/11/04 01:09:23;;;;;;;0.10;0.10;;;;;;;;;;5074627;28;20115;-82
2022/11/04 01:11:49;;;;;;;0.00;0.00;;;;;;;;;;5075279;28;20075;-81
2022/11/04 01:14:15;;;;;;;0.00;0.00;;;;;;;;;;5074614;28;20082;-81
2022/11/04 01:16:42;;;;;;;0.00;0.00;;;;;;;;;;5091904;28;20044;-81
2022/11/04 01:19:08;;;;;;;0.10;0.08;;;;;;;;;;5074294;28;20044;-81
2022/11/04 01:21:34;;;;;;;0.00;0.00;;;;;;;;;;5092931;28;20094;-81
2022/11/04 01:24:00;;;;;;;0.00;0.00;;;;;;;;;;5074517;28;20044;-81
2022/11/04 01:26:27;;;;;;;0.00;0.00;;;;;;;;;;5093705;28;20032;-81
2022/11/04 01:28:54;;;;;;;0.00;0.00;;;;;;;;;;5096812;28;20145;-81
2022/11/04 01:31:22;;;;;;;0.00;0.00;;;;;;;;;;5078608;28;20044;-81
2022/11/04 01:33:48;;;;;;;0.00;0.00;;;;;;;;;;5078400;28;20502;-80
2022/11/04 01:36:14;;;;;;;1.10;0.00;;;;;;;;;;5078288;28;20130;-80
2022/11/04 01:38:41;;;;;;;0.00;0.00;;;;;;;;;;5078387;28;20056;-81
2022/11/04 01:41:08;;;;;;;0.00;0.00;;;;;;;;;;5079025;28;20062;-80
2022/11/04 01:43:43;;;;;;;0.00;0.00;;;;;;;;;;5078099;28;20123;-80
2022/11/04 01:46:10;;;;;;;0.00;0.00;;;;;;;;;;5078655;28;20487;-81
2022/11/04 01:48:37;;;;;;;0.00;0.00;;;;;;;;;;5096460;28;20036;-81
2022/11/04 01:51:03;;;;;;;0.00;0.00;;;;;;;;;;5078675;28;20044;-81
2022/11/04 01:53:34;;;;;;;0.00;0.00;;;;;;;;;;5096345;28;20459;-80
2022/11/04 01:56:03;;;;;;;0.00;0.00;;;;;;;;;;5078219;28;20040;-81
2022/11/04 01:58:30;;;;;;;0.00;0.00;;;;;;;;;;5096497;28;20403;-81
2022/11/04 02:00:56;;;;;;;0.00;0.00;;;;;;;;;;5096008;28;20044;-81
2022/11/04 02:03:25;;;;;;;0.00;0.00;;;;;;;;;;5077976;28;20078;-81
2022/11/04 02:05:52;;;;;;;0.00;0.00;;;;;;;;;;5077679;28;20036;-81
2022/11/04 02:08:18;;;;;;;0.00;0.00;;;;;;;;;;5096220;28;20040;-81
2022/11/04 02:10:54;;;;;;;0.00;0.00;;;;;;;;;;5077587;28;20123;-81
2022/11/04 02:13:19;;;;;;;;;;;;;;;;;;5096609;28;20074;-81
2022/11/04 02:15:52;;;;;;;0.00;0.00;;;;;;;;;;5096074;28;20282;-81
2022/11/04 02:18:18;;;;;;;0.00;0.00;;;;;;;;;;5077657;28;20438;-81
2022/11/04 02:21:02;;;;;;;0.00;0.00;;;;;;;;;;5095571;28;20127;-81
2022/11/04 02:23:47;;;;;;;0.00;0.00;;;;;;;;;;5095982;28;20040;-81
2022/11/04 02:26:16;;;;;;;0.00;0.00;;;;;;;;;;5094598;28;20399;-81
2022/11/04 02:28:54;;;;;;;0.00;0.00;;;;;;;;;;5077445;28;20044;-81
2022/11/04 02:31:30;;;;;;;0.00;0.00;;;;;;;;;;5077408;28;20054;-81
2022/11/04 02:34:01;;;;;;;0.00;0.00;;;;;;;;;;5077534;28;20127;-81
2022/11/04 02:36:36;;;;;;;0.00;0.00;;;;;;;;;;5077324;28;20412;-81
2022/11/04 02:39:27;;;;;;;0.00;0.00;;;;;;;;;;5076323;28;20051;-81
2022/11/04 02:41:56;;;;;;;0.00;0.00;;;;;;;;;;5077303;28;20040;-81
2022/11/04 02:44:34;;;;;;;0.00;0.00;;;;;;;;;;5077124;28;20047;-80
2022/11/04 02:47:03;;;;;;;0.00;0.00;;;;;;;;;;5077510;28;20123;-81
2022/11/04 02:49:34;;;;;;;0.00;0.00;;;;;;;;;;5095482;28;20086;-81
2022/11/04 02:52:10;;;;;;;0.00;0.00;;;;;;;;;;5095537;28;20387;-82
2022/11/04 02:54:41;;;;;;;0.00;0.00;;;;;;;;;;5095181;28;20119;-82
2022/11/04 02:57:08;;;;;;;0.00;0.00;;;;;;;;;;5077356;28;20471;-81
2022/11/04 02:59:44;;;;;;;0.00;0.00;;;;;;;;;;5076568;28;20048;-81
2022/11/04 03:02:12;;;;;;;0.00;0.00;;;;;;;;;;5095066;28;20036;-81
2022/11/04 03:04:41;;;;;;;0.00;0.00;;;;;;;;;;5094904;28;20062;-81
2022/11/04 03:07:09;;;;;;;0.00;0.00;;;;;;;;;;5076821;28;20040;-81
2022/11/04 03:09:37;;;;;;;0.00;0.00;;;;;;;;;;5076873;28;20040;-81
2022/11/04 03:12:05;;;;;;;0.00;0.00;;;;;;;;;;5076800;28;20119;-81
2022/11/04 03:14:37;;;;;;;0.00;0.00;;;;;;;;;;5076373;28;20044;-80
2022/11/04 03:17:06;;;;;;;0.00;0.00;;;;;;;;;;5076945;28;20337;-81
2022/11/04 03:19:39;;;;;;;0.00;0.00;;;;;;;;;;5076237;28;20399;-81
2022/11/04 03:22:10;;;;;;;0.00;0.00;;;;;;;;;;5094890;28;20118;-80
2022/11/04 03:24:37;;;;;;;0.00;0.00;;;;;;;;;;5094430;28;20039;-80
2022/11/04 03:27:21;;;;;;;0.00;0.00;;;;;;;;;;5076286;28;20040;-81
2022/11/04 03:30:00;;;;;;;0.00;0.00;;;;;;;;;;5094494;28;20382;-81
2022/11/04 03:32:26;;;;;;;0.00;0.00;;;;;;;;;;5076342;28;20044;-81
2022/11/04 03:34:52;;;;;;;0.00;0.00;;;;;;;;;;5076117;28;20043;-81
2022/11/04 03:37:18;;;;;;;0.00;0.00;;;;;;;;;;5075993;28;20075;-80
2022/11/04 03:39:44;;;;;;;0.00;0.00;;;;;;;;;;5075852;28;20087;-81
2022/11/04 03:42:21;;;;;;;0.00;0.00;;;;;;;;;;5094427;28;20036;-81
2022/11/04 03:44:51;;;;;;;0.00;0.00;;;;;;;;;;5094266;28;20058;-81
2022/11/04 03:47:18;;;;;;;0.00;0.00;;;;;;;;;;5076016;28;20044;-81
2022/11/04 03:49:45;;;;;;;0.00;0.00;;;;;;;;;;5075753;28;20369;-81
2022/11/04 03:52:11;;;;;;;0.00;0.00;;;;;;;;;;5075901;28;20040;-81
2022/11/04 03:54:37;;;;;;;0.00;0.00;;;;;;;;;;5076069;28;20479;-81
2022/11/04 03:57:21;;;;;;;0.00;0.00;;;;;;;;;;5093977;28;20071;-80
2022/11/04 03:59:56;;;;;;;0.00;0.00;;;;;;;;;;5075668;28;20555;-80
2022/11/04 04:02:28;;;;;;;0.00;0.00;;;;;;;;;;5075727;28;20044;-81
2022/11/04 04:04:57;;;;;;;0.00;0.00;;;;;;;;;;5075571;28;20105;-81
2022/11/04 04:07:35;;;;;;;0.00;0.00;;;;;;;;;;5076108;28;20066;-81
2022/11/04 04:10:37;;;;;;;0.00;0.00;;;;;;;;;;5093516;28;20048;-81
2022/11/04 04:12:58;;;;;;;0.00;0.00;;;;;;;;;;5093496;28;20044;-81
2022/11/04 04:15:27;;;;;;;0.00;0.00;;;;;;;;;;5075508;28;20097;-81
2022/11/04 04:18:00;;;;;;;0.00;0.00;;;;;;;;;;5093429;28;20558;-81
2022/11/04 04:20:28;;;;;;;0.00;0.00;;;;;;;;;;5093598;28;20040;-81
2022/11/04 04:22:57;;;;;;;0.00;0.00;;;;;;;;;;5075280;28;20469;-81
2022/11/04 04:28:11;;;;;;;0.00;0.00;;;;;;;;;;5075614;28;20044;-81
2022/11/04 04:30:37;;;;;;;0.00;0.00;;;;;;;;;;5058792;28;20039;-80
2022/11/04 04:33:06;;;;;;;0.00;0.00;;;;;;;;;;5075541;28;20054;-81
2022/11/04 04:35:42;;;;;;;0.00;0.00;;;;;;;;;;5074860;28;20055;-80
2022/11/04 04:46:35;;;;;;;0.00;0.00;;;;;;;;;;5093283;28;20044;-81
2022/11/04 04:49:05;;;;;;;0.00;0.00;;;;;;;;;;5075275;28;20052;-80
2022/11/04 04:51:32;;;;;;;0.00;0.00;;;;;;;;;;5074877;28;20050;-81
2022/11/04 04:53:57;;;;;;;0.00;0.00;;;;;;;;;;5093128;28;20493;-80
2022/11/04 04:56:23;;;;;;;0.00;0.00;;;;;;;;;;5075160;28;20048;-81
2022/11/04 04:58:49;;;;;;;0.00;0.00;;;;;;;;;;5075036;28;20048;-81
2022/11/04 05:01:15;;;;;;;0.00;0.00;;;;;;;;;;5091399;28;20114;-82
2022/11/04 05:03:41;;;;;;;0.00;0.00;;;;;;;;;;5075395;28;20044;-81
2022/11/04 05:06:07;;;;;;;0.00;0.00;;;;;;;;;;5074955;28;20046;-81
2022/11/04 05:08:34;;;;;;;0.00;0.00;;;;;;;;;;5093084;28;20074;-81
2022/11/04 05:11:00;;;;;;;0.00;0.00;;;;;;;;;;5092892;28;20036;-81
2022/11/04 05:13:26;;;;;;;0.00;0.00;;;;;;;;;;5074784;28;20055;-81
2022/11/04 05:15:52;;;;;;;0.00;0.00;;;;;;;;;;5075269;28;20471;-81
2022/11/04 05:18:18;;;;;;;0.00;0.00;;;;;;;;;;5074712;28;20043;-81
2022/11/04 05:20:44;;;;;;;0.00;0.00;;;;;;;;;;5074748;28;20047;-81
2022/11/04 05:23:11;;;;;;;0.00;0.00;;;;;;;;;;5074833;28;20044;-81
2022/11/04 05:25:41;;;;;;;0.00;0.00;;;;;;;;;;5074967;28;20058;-81
2022/11/04 05:28:07;;;;;;;0.00;0.00;;;;;;;;;;5074577;28;20101;-81
2022/11/04 05:30:34;;;;;;;0.00;0.00;;;;;;;;;;5074893;28;20365;-81
2022/11/04 05:33:00;;;;;;;0.00;0.00;;;;;;;;;;5074540;28;20040;-81
2022/11/04 05:35:26;;;;;;;0.00;0.00;;;;;;;;;;5092790;28;20090;-81
2022/11/04 05:37:52;;;;;;;0.00;0.00;;;;;;;;;;5074246;28;20045;-80
2022/11/04 05:40:18;;;;;;;0.00;0.00;;;;;;;;;;5074591;28;20032;-81
2022/11/04 05:42:44;;;;;;;0.00;0.00;;;;;;;;;;5092387;28;20443;-81
2022/11/04 05:45:10;;;;;;;0.00;0.00;;;;;;;;;;5074584;28;20040;-81
2022/11/04 05:47:36;;;;;;;0.00;0.00;;;;;;;;;;5074257;28;20046;-81
2022/11/04 05:50:02;;;;;;;0.00;0.00;;;;;;;;;;5074490;28;20115;-81
2022/11/04 05:52:28;;;;;;;0.00;0.00;;;;;;;;;;5092607;28;20047;-81
2022/11/04 05:54:54;;;;;;;0.00;0.00;;;;;;;;;;5074634;28;20040;-81
2022/11/04 05:57:20;;;;;;;0.00;0.00;;;;;;;;;;5074519;28;20090;-81
2022/11/04 05:59:46;;;;;;;0.00;0.00;;;;;;;;;;5092612;28;20040;-81
2022/11/04 06:02:12;;;;;;;0.00;0.00;;;;;;;;;;5074407;28;20043;-81
2022/11/04 06:04:38;;;;;;;0.00;0.00;;;;;;;;;;5074693;28;20044;-81
2022/11/04 06:07:04;;;;;;;0.00;0.00;;;;;;;;;;5074062;28;20050;-81
2022/11/04 06:09:39;;;;;;;0.00;0.00;;;;;;;;;;5092348;28;20040;-80
2022/11/04 06:12:09;;;;;;;0.00;0.00;;;;;;;;;;5074332;28;20052;-81
2022/11/04 06:14:35;;;;;;;0.00;0.00;;;;;;;;;;5076838;28;20052;-80
2022/11/04 06:17:01;;;;;;;0.00;0.00;;;;;;;;;;5077639;28;20048;-80
2022/11/04 06:19:27;;;;;;;0.00;0.00;;;;;;;;;;5095805;28;20047;-81
2022/11/04 06:21:53;;;;;;;0.00;0.00;;;;;;;;;;5077739;28;20126;-80
2022/11/04 06:24:19;;;;;;;0.00;0.00;;;;;;;;;;5077900;28;20079;-80
2022/11/04 06:26:45;;;;;;;0.00;0.00;;;;;;;;;;5077562;28;20063;-81
2022/11/04 06:29:11;;;;;;;0.00;0.00;;;;;;;;;;5095821;28;20044;-81
2022/11/04 06:31:37;;;;;;;0.00;0.00;;;;;;;;;;5077241;28;20043;-81
2022/11/04 06:34:04;;;;;;;0.00;0.00;;;;;;;;;;5077842;28;20044;-81
2022/11/04 06:36:30;;;;;;;0.00;0.00;;;;;;;;;;5095261;28;20124;-81
2022/11/04 06:38:55;;;;;;;0.00;0.00;;;;;;;;;;5095361;28;20048;-81
2022/11/04 06:41:21;;;;;;;0.00;0.00;;;;;;;;;;5077275;28;20490;-81
2022/11/04 06:43:50;;;;;;;0.00;0.00;;;;;;;;;;5095307;28;20043;-81
2022/11/04 06:46:46;;;;;;;0.00;0.00;;;;;;;;;;5077249;28;20399;-81
2022/11/04 06:49:19;;;;;;;0.00;0.00;;;;;;;;;;5078192;28;20048;-81
2022/11/04 06:51:45;;;;;;;0.00;0.00;;;;;;;;;;5077211;28;20387;-81
2022/11/04 06:54:12;;;;;;;0.00;0.00;;;;;;;;;;5095472;28;20145;-81
2022/11/04 06:56:38;;;;;;;0.00;0.00;;;;;;;;;;5095068;28;20484;-81
2022/11/04 06:59:04;;;;;;;0.00;0.00;;;;;;;;;;5076936;28;20044;-81
2022/11/04 07:01:32;;;;;;;0.00;0.00;;;;;;;;;;5076962;28;20047;-80
2022/11/04 07:03:59;;;;;;;0.00;0.00;;;;;;;;;;5095017;28;20055;-81
2022/11/04 07:06:26;;;;;;;0.00;0.00;;;;;;;;;;5095230;28;20040;-81
2022/11/04 07:08:52;;;;;;;0.00;0.00;;;;;;;;;;5094942;28;20139;-81
2022/11/04 07:11:20;;;;;;;0.00;0.00;;;;;;;;;;5076938;28;20044;-81
2022/11/04 07:13:46;;;;;;;0.00;0.00;;;;;;;;;;5076887;28;20048;-81
2022/11/04 07:16:12;;;;;;;0.00;0.00;;;;;;;;;;5076644;28;20048;-81
2022/11/04 07:18:38;;;;;;;0.00;0.00;;;;;;;;;;5094720;28;20047;-81
2022/11/04 07:21:06;;;;;;;0.00;0.00;;;;;;;;;;5076706;28;20040;-81
2022/11/04 07:23:32;;;;;;;0.00;0.00;;;;;;;;;;5076512;28;20032;-81
2022/11/04 07:26:01;;;;;;;0.00;0.00;;;;;;;;;;5076046;28;20040;-82
2022/11/04 07:28:27;;;;;;;0.00;0.00;;;;;;;;;;5093331;28;20119;-82
2022/11/04 07:30:57;;;;;;;0.00;0.00;;;;;;;;;;5076608;28;20499;-82
2022/11/04 07:33:24;;;;;;;0.00;0.00;;;;;;;;;;5076219;28;20043;-82
2022/11/04 07:35:52;;;;;;;0.00;0.00;;;;;;;;;;5076117;28;20056;-81
2022/11/04 07:38:18;;;;;;;0.00;0.00;;;;;;;;;;5076084;28;20403;-80
2022/11/04 07:40:44;;;;;;;1.55;0.52;;;;;;;;;;5076133;28;20085;-81
2022/11/04 07:43:10;;;;;;;0.00;0.00;;;;;;;;;;5076224;28;20040;-80
2022/11/04 07:45:36;;;;;;;0.00;0.00;;;;;;;;;;5076293;28;20078;-81
2022/11/04 07:48:02;;;;;;;0.00;0.00;;;;;;;;;;5075687;28;20071;-83
2022/11/04 07:50:28;;;;;;;0.00;0.00;;;;;;;;;;5076195;28;20055;-83
2022/11/04 07:52:54;;;;;;;0.00;0.00;;;;;;;;;;5075883;28;20036;-85
2022/11/04 07:55:20;;;;;;;0.00;0.00;;;;;;;;;;5076290;28;20139;-84
2022/11/04 07:57:46;;;;;;;0.00;0.00;;;;;;;;;;5074143;28;20372;-82
2022/11/04 08:00:14;;;;;;;0.00;0.00;;;;;;;;;;5075741;28;20040;-84
2022/11/04 08:02:40;;;;;;;0.00;0.00;;;;;;;;;;5075804;28;20036;-84
2022/11/04 08:05:06;;;;;;;0.00;0.00;;;;;;;;;;5075891;28;20039;-82
2022/11/04 08:07:32;;;;;;;0.00;0.00;;;;;;;;;;5075610;28;20395;-81
2022/11/04 08:09:58;;;;;;;0.00;0.00;;;;;;;;;;5075678;28;20044;-81
2022/11/04 08:12:24;;;;;;;0.00;0.00;;;;;;;;;;5075359;28;20044;-81
2022/11/04 08:14:50;;;;;;;0.00;0.00;;;;;;;;;;5075454;28;20040;-81
2022/11/04 08:17:16;;;;;;;0.00;0.00;;;;;;;;;;5075724;28;20102;-82
2022/11/04 08:19:42;;;;;;;0.00;0.00;;;;;;;;;;5074938;28;20117;-82
2022/11/04 08:22:08;;;;;;;0.00;0.00;;;;;;;;;;5075467;28;20043;-81
2022/11/04 08:24:35;;;;;;;0.00;0.00;;;;;;;;;;5075357;28;20043;-81
2022/11/04 08:27:02;;;;;;;0.00;0.00;;;;;;;;;;5092166;28;20064;-81
2022/11/04 08:29:28;;;;;;;0.00;0.00;;;;;;;;;;5075018;28;20051;-81
2022/11/04 08:31:54;;;;;;;0.00;0.00;;;;;;;;;;5092278;28;20036;-81
2022/11/04 08:34:20;;;;;;;0.00;0.00;;;;;;;;;;5093301;28;20508;-81
2022/11/04 08:36:46;;;;;;;0.00;0.00;;;;;;;;;;5073969;28;20111;-81
2022/11/04 08:39:12;;;;;;;0.00;0.00;;;;;;;;;;5074867;28;20484;-82
2022/11/04 08:41:39;;;;;;;0.00;0.00;;;;;;;;;;5093267;28;20532;-81
2022/11/04 08:44:06;;;;;;;0.00;0.00;;;;;;;;;;5068909;28;20063;-81
2022/11/04 08:46:36;;;;;;;0.00;0.00;;;;;;;;;;5070579;28;20036;-83
2022/11/04 08:49:02;;;;;;;0.00;0.00;;;;;;;;;;5075002;28;20040;-90
2022/11/04 08:51:29;;;;;;;0.00;0.00;;;;;;;;;;5075315;28;20052;-82
2022/11/04 08:53:55;;;;;;;0.00;0.00;;;;;;;;;;5075043;28;20404;-82
2022/11/04 08:56:23;;;;;;;0.00;0.00;;;;;;;;;;5074987;28;20086;-82
2022/11/04 08:58:49;;;;;;;0.00;0.00;;;;;;;;;;5092926;28;20093;-83
2022/11/04 09:01:15;;;;;;;0.00;0.00;;;;;;;;;;5066070;28;20032;-82
2022/11/04 09:03:41;;;;;;;0.00;0.00;;;;;;;;;;5074846;28;20429;-82
2022/11/04 09:06:08;;;;;;;0.00;0.00;;;;;;;;;;5074864;28;20078;-82
2022/11/04 09:08:36;;;;;;;0.00;0.00;;;;;;;;;;5075005;28;20433;-82
2022/11/04 09:11:05;;;;;;;0.00;0.00;;;;;;;;;;5092954;28;20048;-82
2022/11/04 09:13:31;;;;;;;0.00;0.00;;;;;;;;;;5074574;28;20036;-82
2022/11/04 09:15:57;;;;;;;0.00;0.00;;;;;;;;;;5074772;28;20101;-82
2022/11/04 09:18:23;;;;;;;0.00;0.00;;;;;;;;;;5074637;28;20131;-82
2022/11/04 09:20:49;;;;;;;0.00;0.00;;;;;;;;;;5075038;28;20097;-81
2022/11/04 09:23:15;;;;;;;0.00;0.00;;;;;;;;;;5074685;28;20048;-81
2022/11/04 09:25:41;;;;;;;0.00;0.00;;;;;;;;;;5074896;28;20123;-81
2022/11/04 09:28:07;;;;;;;0.00;0.00;;;;;;;;;;5074586;28;20067;-82
2022/11/04 09:30:33;;;;;;;0.00;0.00;;;;;;;;;;5058076;28;20439;-82
2022/11/04 09:32:59;;;;;;;0.00;0.00;;;;;;;;;;5074736;28;20062;-83
2022/11/04 09:35:26;;;;;;;0.00;0.00;;;;;;;;;;5074497;28;20048;-83
2022/11/04 09:37:53;;;;;;;0.00;0.00;;;;;;;;;;5057639;28;20064;-82
2022/11/04 09:40:20;;;;;;;0.00;0.00;;;;;;;;;;5074598;28;20048;-82
2022/11/04 09:42:47;;;;;;;0.00;0.00;;;;;;;;;;5074649;28;20040;-83
2022/11/04 09:45:17;;;;;;;0.00;0.00;;;;;;;;;;5071569;28;20072;-83
2022/11/04 09:47:44;;;;;;;0.00;0.00;;;;;;;;;;5075503;28;20360;-83
2022/11/04 09:50:17;;;;;;;0.00;0.00;;;;;;;;;;5078177;28;20051;-83
2022/11/04 09:52:44;;;;;;;0.00;0.00;;;;;;;;;;5078229;28;20039;-86
2022/11/04 09:55:31;;;;;;;0.00;0.00;;;;;;;;;;5078265;28;20035;-82
2022/11/04 09:57:57;;;;;;;0.00;0.00;;;;;;;;;;5078023;28;20075;-83
2022/11/04 10:00:23;;;;;;;0.00;0.00;;;;;;;;;;5096036;28;20573;-82
2022/11/04 10:02:59;;;;;;;0.00;0.00;;;;;;;;;;5078284;28;20068;-84
2022/11/04 10:05:44;;;;;;;0.00;0.00;;;;;;;;;;5078383;28;20051;-85
2022/11/04 10:08:27;;;;;;;0.00;0.00;;;;;;;;;;5077878;28;20126;-82
2022/11/04 10:11:04;;;;;;;0.00;0.00;;;;;;;;;;5096128;28;20184;-81
2022/11/04 10:13:42;;;;;;;0.00;0.00;;;;;;;;;;5077874;28;20051;-84
2022/11/04 10:16:17;;;;;;;0.00;0.00;;;;;;;;;;5077913;28;20086;-85
2022/11/04 10:18:49;;;;;;;0.00;0.00;;;;;;;;;;5077418;28;20093;-84
2022/11/04 10:21:34;;;;;;;0.00;0.00;;;;;;;;;;5073640;28;20048;-84
2022/11/04 10:24:06;;;;;;;0.00;0.00;;;;;;;;;;5094253;28;20047;-84
2022/11/04 10:26:35;;;;;;;0.00;0.00;;;;;;;;;;5096132;28;20089;-85
2022/11/04 10:29:03;;;;;;;0.00;0.00;;;;;;;;;;5094356;28;20055;-85
2022/11/04 10:31:29;;;;;;;0.00;0.00;;;;;;;;;;5077577;28;20043;-91
2022/11/04 10:33:58;;;;;;;0.00;0.00;;;;;;;;;;5094643;28;20040;-85
2022/11/04 10:36:25;;;;;;;0.00;0.00;;;;;;;;;;5094843;28;20048;-88
2022/11/04 10:38:55;;;;;;;0.00;0.00;;;;;;;;;;5094049;28;20040;-84
2022/11/04 10:41:25;;;;;;;0.00;0.00;;;;;;;;;;5094396;28;20395;-84
2022/11/04 10:43:53;;;;;;;0.00;0.00;;;;;;;;;;5095602;28;20036;-85
2022/11/04 10:46:37;;;;;;;0.00;0.00;;;;;;;;;;5094418;28;20406;-84
2022/11/04 10:49:11;;;;;;;0.00;0.00;;;;;;;;;;5077037;28;20046;-85
2022/11/04 10:51:37;;;;;;;0.00;0.00;;;;;;;;;;5094394;28;20491;-84
2022/11/04 10:54:05;;;;;;;0.00;0.00;;;;;;;;;;5093772;28;20066;-85
2022/11/04 10:57:03;;;;;;;0.00;0.00;;;;;;;;;;5094029;28;20391;-84
2022/11/04 10:59:38;;;;;;;0.00;0.00;;;;;;;;;;5032455;28;20051;-85
2022/11/04 11:02:04;;;;;;;0.00;0.00;;;;;;;;;;5094065;28;20131;-85
2022/11/04 11:04:32;;;;;;;0.00;0.00;;;;;;;;;;5093745;28;20090;-84
2022/11/04 11:07:00;;;;;;;0.00;0.00;;;;;;;;;;5093410;28;20112;-85
2022/11/04 11:09:28;;;;;;;0.00;0.00;;;;;;;;;;5076649;28;20039;-87
2022/11/04 11:12:15;;;;;;;0.00;0.00;;;;;;;;;;5076886;28;20032;-84
2022/11/04 11:14:42;;;;;;;0.00;0.00;;;;;;;;;;5066528;28;20499;-84
2022/11/04 11:17:14;;;;;;;0.00;0.00;;;;;;;;;;5076266;28;20066;-84
2022/11/04 11:20:01;;;;;;;0.17;0.00;;;;;;;;;;5076234;28;20047;-84
2022/11/04 11:22:33;;;;;;;0.00;0.00;;;;;;;;;;5076492;28;20468;-84
2022/11/04 11:25:18;;;;;;;0.00;0.00;;;;;;;;;;5076303;28;20044;-84
2022/11/04 11:27:51;;;;;;;0.00;0.00;;;;;;;;;;5076315;28;20043;-85
2022/11/04 11:30:20;;;;;;;0.00;0.00;;;;;;;;;;5076173;28;20032;-84
2022/11/04 11:32:52;;;;;;;0.00;0.00;;;;;;;;;;5076675;28;20040;-84
2022/11/04 11:35:18;;;;;;;0.00;0.00;;;;;;;;;;5076289;28;20040;-84
2022/11/04 11:37:46;;;;;;;0.00;0.00;;;;;;;;;;5094200;28;20056;-84
2022/11/04 11:40:33;;;;;;;0.00;0.00;;;;;;;;;;5076126;28;20621;-84
2022/11/04 11:43:00;;;;;;;0.00;0.00;;;;;;;;;;5076199;28;20104;-84
2022/11/04 11:45:27;;;;;;;0.00;0.00;;;;;;;;;;5076231;28;20463;-84
2022/11/04 11:47:56;;;;;;;0.00;0.00;;;;;;;;;;5076244;28;20036;-85
2022/11/04 11:50:29;;;;;;;0.00;0.00;;;;;;;;;;5075819;28;20047;-84
2022/11/04 11:53:06;;;;;;;0.00;0.00;;;;;;;;;;5075989;28;20095;-85
2022/11/04 11:55:36;;;;;;;0.00;0.00;;;;;;;;;;5076030;28;20044;-84
2022/11/04 11:58:12;;;;;;;0.00;0.00;;;;;;;;;;5075810;28;20047;-84
2022/11/04 12:00:44;;;;;;;0.00;0.00;;;;;;;;;;5075862;28;20414;-85
2022/11/04 12:03:29;;;;;;;0.00;0.00;;;;;;;;;;5075947;28;20074;-85
2022/11/04 12:05:55;;;;;;;0.00;0.00;;;;;;;;;;5075778;28;20040;-86
2022/11/04 12:08:27;;;;;;;0.00;0.00;;;;;;;;;;5075799;28;20032;-85
2022/11/04 12:10:57;;;;;;;0.00;0.00;;;;;;;;;;5075772;28;20043;-86
2022/11/04 12:13:29;;;;;;;0.00;0.00;;;;;;;;;;5075950;28;20048;-85
2022/11/04 12:16:10;;;;;;;0.00;0.00;;;;;;;;;;5075451;28;20048;-85
2022/11/04 12:18:49;;;;;;;0.00;0.00;;;;;;;;;;5075636;28;20148;-85
2022/11/04 12:21:20;;;;;;;0.00;0.00;;;;;;;;;;5075679;28;20094;-86
2022/11/04 12:23:57;;;;;;;0.00;0.00;;;;;;;;;;5075889;28;20039;-85
2022/11/04 12:26:41;;;;;;;0.00;0.00;;;;;;;;;;5075153;28;20455;-84
2022/11/04 12:29:18;;;;;;;0.00;0.00;;;;;;;;;;5075295;28;20389;-85
2022/11/04 12:31:54;;;;;;;0.00;0.00;;;;;;;;;;5075240;28;20051;-84
2022/11/04 12:34:27;;;;;;;0.00;0.00;;;;;;;;;;5075332;28;20113;-86
2022/11/04 12:36:59;;;;;;;0.00;0.00;;;;;;;;;;5074808;28;20092;-85
2022/11/04 12:39:45;;;;;;;0.00;0.00;;;;;;;;;;5075507;28;20048;-85
2022/11/04 12:42:23;;;;;;;0.00;0.00;;;;;;;;;;5074810;28;20123;-85
2022/11/04 12:44:55;;;;;;;0.00;0.00;;;;;;;;;;5075223;28;20462;-85
2022/11/04 12:47:24;;;;;;;0.00;0.00;;;;;;;;;;5074951;28;20121;-85
2022/11/04 12:50:02;;;;;;;0.00;0.00;;;;;;;;;;5074908;28;20046;-85
2022/11/04 12:52:37;;;;;;;0.00;0.00;;;;;;;;;;5074928;28;20051;-85
2022/11/04 12:55:13;;;;;;;0.00;0.00;;;;;;;;;;5075117;28;20040;-85
2022/11/04 12:57:46;;;;;;;0.00;0.00;;;;;;;;;;5075281;28;20056;-85
2022/11/04 13:00:13;;;;;;;0.00;0.00;;;;;;;;;;5074822;28;20044;-85
2022/11/04 13:02:41;;;;;;;0.00;0.00;;;;;;;;;;5074853;28;20051;-85
2022/11/04 13:05:07;;;;;;;0.00;0.00;;;;;;;;;;5075071;28;20074;-85
2022/11/04 13:07:40;;;;;;;0.00;0.00;;;;;;;;;;5074717;28;20040;-85
2022/11/04 13:10:11;;;;;;;0.00;0.00;;;;;;;;;;5075799;28;20089;-86
2022/11/04 13:12:39;;;;;;;0.00;0.00;;;;;;;;;;5074976;28;20047;-85
2022/11/04 13:15:11;;;;;;;0.00;0.00;;;;;;;;;;5074756;28;20036;-84
2022/11/04 13:17:39;;;;;;;0.00;0.00;;;;;;;;;;5074840;28;20393;-85
2022/11/04 13:20:25;;;;;;;0.00;0.00;;;;;;;;;;5074600;28;20043;-85
2022/11/04 13:22:52;;;;;;;0.00;0.00;;;;;;;;;;5076279;28;20083;-85
2022/11/04 13:25:36;;;;;;;0.00;0.00;;;;;;;;;;5079047;28;20062;-84
2022/11/04 13:28:03;;;;;;;0.00;0.00;;;;;;;;;;5078687;28;20079;-85
2022/11/04 13:30:29;;;;;;;0.00;0.00;;;;;;;;;;5078799;28;20044;-85
2022/11/04 13:33:08;;;;;;;0.00;0.00;;;;;;;;;;5078892;28;20089;-85
2022/11/04 13:35:37;;;;;;;0.00;0.00;;;;;;;;;;5078738;28;20382;-85
2022/11/04 13:38:13;;;;;;;0.00;0.00;;;;;;;;;;5078645;28;20063;-85
2022/11/04 13:40:57;;;;;;;0.00;0.00;;;;;;;;;;5078437;28;20089;-85
2022/11/04 13:43:37;;;;;;;0.00;0.00;;;;;;;;;;5078610;28;20078;-86
2022/11/04 13:46:03;;;;;;;0.00;0.00;;;;;;;;;;5078410;28;20127;-84
2022/11/04 13:48:31;;;;;;;0.00;0.00;;;;;;;;;;5078335;28;20047;-85
2022/11/04 13:51:08;;;;;;;0.00;0.00;;;;;;;;;;5078110;28;20073;-85
2022/11/04 13:53:50;;;;;;;0.00;0.00;;;;;;;;;;5077729;28;20059;-85
2022/11/04 13:56:35;;;;;;;0.00;0.00;;;;;;;;;;5078105;28;20127;-87
2022/11/04 13:59:04;;;;;;;0.00;0.00;;;;;;;;;;5078167;28;20040;-86
2022/11/04 14:01:32;;;;;;;0.00;0.00;;;;;;;;;;5078146;28;20368;-85
2022/11/04 14:04:04;;;;;;;0.00;0.00;;;;;;;;;;5078057;28;20065;-86
2022/11/04 14:06:47;;;;;;;0.00;0.00;;;;;;;;;;5077733;28;20453;-85
2022/11/04 14:09:31;;;;;;;0.00;0.00;;;;;;;;;;5078110;28;20040;-86
2022/11/04 14:12:20;;;;;;;0.00;0.00;;;;;;;;;;5077707;28;20072;-86
2022/11/04 14:14:53;;;;;;;0.00;0.00;;;;;;;;;;5070356;28;20052;-86
2022/11/04 14:17:35;;;;;;;0.00;0.00;;;;;;;;;;5068512;28;20151;-84
2022/11/04 14:20:19;;;;;;;0.00;0.00;;;;;;;;;;5068623;28;20038;-84
2022/11/04 14:22:48;;;;;;;0.00;0.00;;;;;;;;;;5077436;28;20093;-85
2022/11/04 14:25:32;;;;;;;0.00;0.00;;;;;;;;;;5077724;28;20090;-84
2022/11/04 14:28:15;;;;;;;0.00;0.00;;;;;;;;;;5072664;28;20039;-84
2022/11/04 14:30:59;;;;;;;0.00;0.00;;;;;;;;;;5094587;28;20055;-84
2022/11/04 14:33:36;;;;;;;0.00;0.00;;;;;;;;;;5091325;28;20123;-85
2022/11/04 14:36:14;;;;;;;0.00;0.00;;;;;;;;;;5068241;28;20094;-85
2022/11/04 14:38:41;;;;;;;0.00;0.00;;;;;;;;;;5077379;28;20054;-85
2022/11/04 14:41:22;;;;;;;0.00;0.00;;;;;;;;;;5077535;28;20121;-84
2022/11/04 14:43:49;;;;;;;0.00;0.00;;;;;;;;;;5077510;28;20047;-85
2022/11/04 14:46:19;;;;;;;0.00;0.00;;;;;;;;;;5077214;28;20050;-86
2022/11/04 14:48:50;;;;;;;0.00;0.00;;;;;;;;;;5077493;28;20079;-85
2022/11/04 14:51:39;;;;;;;0.00;0.00;;;;;;;;;;5060609;28;20458;-85
2022/11/04 14:54:24;;;;;;;0.00;0.00;;;;;;;;;;5060651;28;20043;-85
2022/11/04 14:56:50;;;;;;;0.00;0.00;;;;;;;;;;5076830;28;20043;-85
2022/11/04 14:59:24;;;;;;;0.00;0.00;;;;;;;;;;5077019;28;20629;-85
2022/11/04 15:01:51;;;;;;;0.00;0.00;;;;;;;;;;5074056;28;20055;-86
2022/11/04 15:04:29;;;;;;;0.00;0.00;;;;;;;;;;5077097;28;20047;-85
2022/11/04 15:07:03;;;;;;;0.00;0.00;;;;;;;;;;5076822;28;20093;-84
2022/11/04 15:09:34;;;;;;;0.00;0.00;;;;;;;;;;5060484;28;20399;-85
2022/11/04 15:14:51;;;;;;;0.00;0.00;;;;;;;;;;5094924;28;20443;-85
2022/11/04 15:17:19;;;;;;;0.00;0.00;;;;;;;;;;5076543;28;20040;-85
2022/11/04 15:19:48;;;;;;;0.00;0.00;;;;;;;;;;5076577;28;20040;-85
2022/11/04 15:22:14;;;;;;;0.00;0.00;;;;;;;;;;5076575;28;20032;-84
2022/11/04 15:24:42;;;;;;;0.00;0.00;;;;;;;;;;5094807;28;20387;-85
2022/11/04 15:27:12;;;;;;;0.00;0.00;;;;;;;;;;5076403;28;20035;-84
2022/11/04 15:29:38;;;;;;;0.00;0.00;;;;;;;;;;5076474;28;20443;-85
2022/11/04 15:32:05;;;;;;;0.00;0.00;;;;;;;;;;5076228;28;20403;-85